Time;durP1;ratioP1;P1;durP2;ratioP2;P2;SDS_P1;SDS_P2;PMS_P1;PMS_P2;Temp;Humidity;BMP_temperature;BMP_pressure;BME280_temperature;BME280_humidity;BME280_pressure;Samples;Min_cycle;Max_cycle;Signal;HPM_P1;HPM_P2
2022/09/27 00:01:12;;;;;;;5.90;2.25;;;;;;;11.04;100.00;99560.84;5073286;28;20109;-53
2022/09/27 00:03:40;;;;;;;7.63;2.65;;;;;;;11.03;100.00;99560.06;5070794;28;20029;-55
2022/09/27 00:06:12;;;;;;;7.85;2.38;;;;;;;11.04;100.00;99553.50;5074882;28;20036;-54
2022/09/27 00:08:40;;;;;;;8.88;2.30;;;;;;;11.03;100.00;99557.31;5070680;28;20045;-54
2022/09/27 00:11:25;;;;;;;7.35;2.13;;;;;;;11.04;100.00;99560.84;5072704;28;20057;-59
2022/09/27 00:13:55;;;;;;;6.93;2.33;;;;;;;11.04;100.00;99569.03;5042843;28;20041;-54
2022/09/27 00:16:24;;;;;;;7.63;2.40;;;;;;;11.04;100.00;99569.88;5066730;28;20044;-56
2022/09/27 00:18:53;;;;;;;6.82;1.98;;;;;;;11.02;100.00;99576.72;5066472;28;20053;-59
2022/09/27 00:21:20;;;;;;;7.55;2.20;;;;;;;10.99;100.00;99575.41;5066464;28;20045;-59
2022/09/27 00:23:48;;;;;;;13.25;2.38;;;;;;;10.99;100.00;99571.84;5063184;28;20085;-56
2022/09/27 00:26:16;;;;;;;6.18;2.33;;;;;;;10.99;100.00;99577.31;5074101;28;20457;-55
2022/09/27 00:28:44;;;;;;;6.57;2.38;;;;;;;10.99;100.00;99572.69;5072469;28;20040;-55
2022/09/27 00:31:38;;;;;;;5.05;1.85;;;;;;;11.01;100.00;99575.91;5072200;28;20052;-54
2022/09/27 00:34:07;;;;;;;8.90;2.40;;;;;;;10.97;100.00;99580.34;5037889;28;20056;-55
2022/09/27 00:36:35;;;;;;;11.13;2.50;;;;;;;10.96;100.00;99589.63;5055758;28;20193;-55
2022/09/27 00:39:03;;;;;;;7.68;2.00;;;;;;;10.96;100.00;99595.06;5071283;28;20041;-55
2022/09/27 00:41:35;;;;;;;7.70;2.40;;;;;;;10.97;100.00;99601.34;5065810;28;20063;-58
2022/09/27 00:44:40;;;;;;;8.85;2.40;;;;;;;10.96;100.00;99586.09;5072596;28;20094;-55
2022/09/27 00:47:23;;;;;;;9.32;2.40;;;;;;;10.98;100.00;99587.41;5011728;28;20186;-57
2022/09/27 00:49:53;;;;;;;8.98;2.88;;;;;;;10.97;100.00;99590.44;5053314;28;20051;-53
2022/09/27 00:52:24;;;;;;;7.40;2.13;;;;;;;10.95;100.00;99590.75;5069233;28;20109;-59
2022/09/27 00:54:55;;;;;;;5.63;1.52;;;;;;;10.96;100.00;99592.34;5066975;28;20041;-57
2022/09/27 00:57:23;;;;;;;6.55;2.25;;;;;;;10.95;100.00;99587.22;5070659;28;20067;-57
2022/09/27 00:59:57;;;;;;;6.75;2.20;;;;;;;10.93;100.00;99595.69;5070778;28;20036;-57
2022/09/27 01:02:25;;;;;;;6.47;1.85;;;;;;;10.90;100.00;99601.75;5066415;28;20481;-57
2022/09/27 01:04:54;;;;;;;7.63;2.38;;;;;;;10.89;100.00;99608.28;5052624;28;20063;-54
2022/09/27 01:07:22;;;;;;;6.07;1.80;;;;;;;10.87;100.00;99605.88;5066307;28;20085;-56
2022/09/27 01:09:50;;;;;;;5.35;1.90;;;;;;;10.90;100.00;99588.13;5070316;28;20040;-56
2022/09/27 01:12:52;;;;;;;8.55;1.80;;;;;;;10.89;100.00;99594.66;5052249;28;20422;-59
2022/09/27 01:15:38;;;;;;;6.50;2.13;;;;;;;10.90;100.00;99590.84;5066946;28;20411;-55
2022/09/27 01:18:30;;;;;;;8.27;1.95;;;;;;;10.89;100.00;99594.66;5046251;28;20044;-59
2022/09/27 01:21:20;;;;;;;9.77;1.75;;;;;;;10.88;100.00;99599.31;5060659;28;20053;-58
2022/09/27 01:24:02;;;;;;;6.25;2.00;;;;;;;10.85;100.00;99591.75;5055306;28;20046;-55
2022/09/27 01:27:00;;;;;;;5.20;2.03;;;;;;;10.85;100.00;99593.66;5052093;28;20045;-57
2022/09/27 01:29:53;;;;;;;7.57;1.65;;;;;;;10.85;100.00;99588.22;5068234;28;20048;-56
2022/09/27 01:32:58;;;;;;;5.95;1.45;;;;;;;10.86;100.00;99595.25;5049841;28;20045;-55
2022/09/27 01:35:39;;;;;;;3.83;1.27;;;;;;;10.84;100.00;99603.72;5062594;28;20044;-54
2022/09/27 01:38:39;;;;;;;5.00;1.88;;;;;;;10.83;100.00;99609.50;5054052;28;20098;-54
2022/09/27 01:41:36;;;;;;;7.60;1.80;;;;;;;10.84;100.00;99602.94;5066970;28;20063;-54
2022/09/27 01:44:50;;;;;;;3.88;1.58;;;;;;;10.84;100.00;99602.94;5048637;28;20515;-58
2022/09/27 01:47:25;;;;;;;6.22;1.50;;;;;;;10.85;100.00;99612.72;5062599;28;20546;-56
2022/09/27 01:50:35;;;;;;;4.88;1.67;;;;;;;10.87;100.00;99613.22;5063404;28;20048;-56
2022/09/27 01:53:07;;;;;;;3.22;1.45;;;;;;;10.84;100.00;99611.09;5058488;28;20052;-57
2022/09/27 01:55:54;;;;;;;4.60;1.40;;;;;;;10.84;100.00;99613.81;5070100;28;20040;-56
2022/09/27 01:59:11;;;;;;;6.82;1.52;;;;;;;10.84;100.00;99608.38;5053967;28;20380;-57
2022/09/27 02:01:48;;;;;;;3.78;1.42;;;;;;;10.82;100.00;99605.97;5053608;28;20044;-54
2022/09/27 02:04:24;;;;;;;5.00;1.67;;;;;;;10.84;100.00;99602.94;5069784;28;20051;-59
2022/09/27 02:07:22;;;;;;;6.22;1.73;;;;;;;10.80;100.00;99607.34;5055962;28;20045;-59
2022/09/27 02:10:07;;;;;;;5.82;1.98;;;;;;;10.80;100.00;99602.72;5055543;28;20040;-54
2022/09/27 02:13:04;;;;;;;6.13;1.50;;;;;;;10.79;100.00;99600.28;5061660;28;20044;-55
2022/09/27 02:15:46;;;;;;;5.35;1.50;;;;;;;10.76;100.00;99617.25;5063954;28;20138;-58
2022/09/27 02:18:45;;;;;;;3.30;1.45;;;;;;;10.77;100.00;99611.47;5077877;28;20056;-59
2022/09/27 02:21:14;;;;;;;4.70;1.63;;;;;;;10.75;100.00;99604.72;5087071;28;20052;-55
2022/09/27 02:23:51;;;;;;;6.82;1.75;;;;;;;10.75;100.00;99610.16;5057322;28;20529;-56
2022/09/27 02:26:43;;;;;;;5.43;1.73;;;;;;;10.75;100.00;99615.63;5060585;28;20091;-55
2022/09/27 02:29:17;;;;;;;5.38;1.83;;;;;;;10.75;100.00;99615.63;5092746;28;20078;-57
2022/09/27 02:31:50;;;;;;;10.38;2.10;;;;;;;10.74;100.00;99611.28;5084476;28;20090;-57
2022/09/27 02:34:24;;;;;;;3.33;1.40;;;;;;;10.73;100.00;99617.84;5056827;28;20041;-58
2022/09/27 02:36:53;;;;;;;6.15;1.73;;;;;;;10.71;100.00;99611.91;5057096;28;20045;-56
2022/09/27 02:39:21;;;;;;;4.70;1.67;;;;;;;10.69;100.00;99619.56;5065296;28;20406;-56
2022/09/27 02:41:58;;;;;;;5.70;1.40;;;;;;;10.67;100.00;99625.28;5057277;28;20053;-56
2022/09/27 02:44:27;;;;;;;3.70;1.40;;;;;;;10.66;100.00;99616.31;5072659;28;20055;-58
2022/09/27 02:47:18;;;;;;;4.70;1.75;;;;;;;10.70;100.00;99623.88;5055117;28;20049;-57
2022/09/27 02:49:49;;;;;;;3.08;1.27;;;;;;;10.69;100.00;99616.81;5055844;28;20048;-56
2022/09/27 02:53:07;;;;;;;7.90;2.20;;;;;;;10.65;100.00;99614.72;5076040;28;20125;-59
2022/09/27 02:55:49;;;;;;;5.85;1.70;;;;;;;10.63;100.00;99616.91;5053359;28;20057;-55
2022/09/27 02:59:03;;;;;;;4.25;1.42;;;;;;;10.58;100.00;99621.63;5063303;28;20055;-58
2022/09/27 03:02:08;;;;;;;5.43;1.60;;;;;;;10.57;100.00;99626.25;5061407;28;20037;-56
2022/09/27 03:05:12;;;;;;;4.50;1.55;;;;;;;10.60;100.00;99625.66;5058895;28;20564;-58
2022/09/27 03:07:40;;;;;;;6.85;1.83;;;;;;;10.56;100.00;99621.94;5058455;28;20411;-55
2022/09/27 03:10:16;;;;;;;4.60;1.42;;;;;;;10.57;100.00;99618.09;5048470;28;20046;-56
2022/09/27 03:12:44;;;;;;;;;;;;;;;10.59;100.00;99617.81;5072462;28;20036;-57
2022/09/27 03:15:13;;;;;;;5.45;1.60;;;;;;;10.57;100.00;99622.75;5038582;28;20375;-58
2022/09/27 03:18:10;;;;;;;5.13;1.90;;;;;;;10.57;100.00;99625.47;5026355;28;20054;-59
2022/09/27 03:20:58;;;;;;;5.15;1.63;;;;;;;10.56;100.00;99627.38;5067740;28;20037;-59
2022/09/27 03:23:26;;;;;;;7.30;1.80;;;;;;;10.57;100.00;99615.38;5057140;28;20047;-58
2022/09/27 03:25:54;;;;;;;3.15;1.40;;;;;;;10.59;100.00;99620.53;5024537;28;20048;-55
2022/09/27 03:28:24;;;;;;;6.03;1.70;;;;;;;10.59;100.00;99618.59;5074396;28;20103;-55
2022/09/27 03:30:51;;;;;;;7.38;1.85;;;;;;;10.58;100.00;99611.56;5053781;28;20044;-57
2022/09/27 03:33:37;;;;;;;5.35;1.80;;;;;;;10.56;100.00;99613.75;5074035;28;20100;-59
2022/09/27 03:36:08;;;;;;;6.28;1.75;;;;;;;10.57;100.00;99620.00;5069043;28;20101;-56
2022/09/27 03:38:36;;;;;;;8.80;2.40;;;;;;;10.55;100.00;99622.22;5074178;28;20406;-59
2022/09/27 03:41:06;;;;;;;4.57;1.67;;;;;;;10.54;100.00;99624.16;5072890;28;20046;-58
2022/09/27 03:43:34;;;;;;;5.78;1.70;;;;;;;10.52;100.00;99639.97;5062904;28;20395;-58
2022/09/27 03:46:03;;;;;;;7.22;2.20;;;;;;;10.50;100.00;99642.19;5073674;28;20387;-59
2022/09/27 03:48:31;;;;;;;9.88;1.90;;;;;;;10.48;100.00;99654.47;5064218;28;20040;-58
2022/09/27 03:50:59;;;;;;;5.85;2.25;;;;;;;10.44;100.00;99655.06;5073289;28;20051;-60
2022/09/27 03:53:27;;;;;;;6.35;2.20;;;;;;;10.38;100.00;99660.88;5070155;28;20045;-58
2022/09/27 03:55:55;;;;;;;7.20;1.70;;;;;;;10.35;100.00;99677.81;5073975;28;20037;-58
2022/09/27 03:58:22;;;;;;;6.65;1.80;;;;;;;10.32;100.00;99678.38;5074277;28;20036;-55
2022/09/27 04:00:50;;;;;;;4.75;1.60;;;;;;;10.32;100.00;99678.38;5073433;28;20049;-57
2022/09/27 04:03:18;;;;;;;6.10;1.95;;;;;;;10.31;100.00;99672.13;5050195;28;20087;-57
2022/09/27 04:05:52;;;;;;;6.45;1.88;;;;;;;10.33;100.00;99663.69;5061743;28;20036;-56
2022/09/27 04:08:29;;;;;;;7.35;2.03;;;;;;;10.27;100.00;99673.81;5071367;28;20471;-56
2022/09/27 04:10:57;;;;;;;7.28;1.85;;;;;;;10.24;100.00;99668.94;5053483;28;20041;-58
2022/09/27 04:13:25;;;;;;;4.78;1.90;;;;;;;10.20;100.00;99651.59;5069228;28;20044;-57
2022/09/27 04:15:55;;;;;;;5.47;1.90;;;;;;;10.22;100.00;99652.91;5062836;28;20055;-56
2022/09/27 04:18:42;;;;;;;3.53;1.48;;;;;;;10.22;100.00;99636.59;5073658;28;20040;-55
2022/09/27 04:21:42;;;;;;;6.13;1.45;;;;;;;10.21;100.00;99626.78;5060279;28;20041;-55
2022/09/27 04:24:12;;;;;;;4.85;1.70;;;;;;;10.23;100.00;99615.59;5069827;28;20093;-56
2022/09/27 04:26:49;;;;;;;3.78;1.40;;;;;;;10.22;100.00;99611.25;5072857;28;20059;-56
2022/09/27 04:29:22;;;;;;;4.75;2.03;;;;;;;10.21;100.00;99617.81;5072315;28;20037;-56
2022/09/27 04:31:52;;;;;;;4.03;1.60;;;;;;;10.19;100.00;99628.19;5072503;28;20044;-55
2022/09/27 04:37:22;;;;;;;4.82;1.35;;;;;;;10.11;100.00;99632.38;5071850;28;20513;-55
2022/09/27 04:39:53;;;;;;;3.03;1.15;;;;;;;10.09;100.00;99628.34;5073186;28;20044;-54
2022/09/27 04:42:21;;;;;;;3.38;1.50;;;;;;;10.07;100.00;99628.63;5063949;28;20039;-55
2022/09/27 04:44:49;;;;;;;2.55;1.42;;;;;;;10.07;100.00;99630.53;5046813;28;20045;-60
2022/09/27 04:47:17;;;;;;;5.82;1.35;;;;;;;10.05;100.00;99636.28;5041054;28;20495;-57
2022/09/27 04:49:46;;;;;;;3.40;1.05;;;;;;;10.08;100.00;99634.88;5072697;28;20098;-56
2022/09/27 04:52:14;;;;;;;2.45;0.93;;;;;;;10.13;100.00;99637.53;5068301;28;20051;-59
2022/09/27 04:54:42;;;;;;;4.57;1.35;;;;;;;10.12;100.00;99638.63;5071009;28;20045;-59
2022/09/27 04:57:11;;;;;;;4.07;1.50;;;;;;;10.12;100.00;99638.63;5053556;28;20037;-57
2022/09/27 04:59:41;;;;;;;3.28;1.30;;;;;;;10.12;100.00;99644.88;5070959;28;20047;-56
2022/09/27 05:02:09;;;;;;;4.60;1.48;;;;;;;10.09;100.00;99648.19;5072350;28;20052;-61
2022/09/27 05:04:49;;;;;;;4.13;1.40;;;;;;;10.07;100.00;99663.19;5065970;28;20086;-60
2022/09/27 05:07:21;;;;;;;4.28;1.55;;;;;;;10.02;100.00;99681.22;5072400;28;20040;-60
2022/09/27 05:09:55;;;;;;;4.80;2.08;;;;;;;9.99;100.00;99670.91;5070636;28;20040;-60
2022/09/27 05:12:25;;;;;;;2.28;1.33;;;;;;;10.00;100.00;99679.88;5054130;28;20036;-60
2022/09/27 05:14:58;;;;;;;4.78;1.50;;;;;;;10.00;100.00;99679.88;5063306;28;20071;-56
2022/09/27 05:17:46;;;;;;;5.03;1.40;;;;;;;10.02;100.00;99674.97;5071644;28;20043;-60
2022/09/27 05:20:52;;;;;;;6.03;2.35;;;;;;;9.98;100.00;99668.47;5070162;28;20500;-58
2022/09/27 05:23:28;;;;;;;5.28;1.48;;;;;;;9.98;100.00;99673.91;5069923;28;20378;-61
2022/09/27 05:25:56;;;;;;;7.75;1.85;;;;;;;9.92;100.00;99669.66;5067991;28;20048;-60
2022/09/27 05:28:24;;;;;;;5.45;1.95;;;;;;;9.84;100.00;99667.56;5054341;28;20525;-59
2022/09/27 05:30:52;;;;;;;5.45;1.48;;;;;;;9.80;100.00;99662.72;5064258;28;20032;-58
2022/09/27 05:33:21;;;;;;;4.20;1.38;;;;;;;9.80;100.00;99668.16;5063542;28;20056;-60
2022/09/27 05:35:53;;;;;;;6.97;2.35;;;;;;;9.85;100.00;99669.22;5061640;28;20087;-58
2022/09/27 05:38:24;;;;;;;4.73;2.20;;;;;;;9.88;100.00;99665.91;5035592;28;20067;-58
2022/09/27 05:40:55;;;;;;;4.47;1.77;;;;;;;9.92;100.00;99658.78;4369123;28;10000709;-57
2022/09/27 05:43:25;;;;;;;3.97;2.03;;;;;;;9.96;100.00;99662.53;5057107;28;20036;-58
2022/09/27 05:45:53;;;;;;;4.05;1.50;;;;;;;9.96;100.00;99663.34;5067802;28;20414;-55
2022/09/27 05:48:22;;;;;;;3.72;1.50;;;;;;;9.97;100.00;99664.16;5067458;28;20032;-53
2022/09/27 05:50:59;;;;;;;3.85;0.98;;;;;;;9.99;100.00;99654.59;5064838;28;20082;-49
2022/09/27 05:53:26;;;;;;;2.90;1.20;;;;;;;9.98;100.00;99644.81;5056940;28;20051;-50
2022/09/27 05:55:54;;;;;;;4.70;1.20;;;;;;;10.01;100.00;99646.13;5051866;28;20044;-50
2022/09/27 05:58:31;;;;;;;;;;;;;;;10.10;100.00;99632.66;5068164;28;20048;-56
2022/09/27 06:01:10;;;;;;;3.95;1.30;;;;;;;10.16;100.00;99637.75;5048129;28;19925;-53
2022/09/27 06:03:57;;;;;;;4.03;1.20;;;;;;;10.09;100.00;99640.03;5052272;28;20083;-50
2022/09/27 06:06:45;;;;;;;6.63;1.83;;;;;;;10.05;100.00;99639.00;5055455;28;20518;-50
2022/09/27 06:09:14;;;;;;;3.42;1.17;;;;;;;9.94;100.00;99648.41;5068357;28;20518;-52
2022/09/27 06:11:45;;;;;;;4.25;1.33;;;;;;;9.89;100.00;99664.81;5031526;28;20051;-52
2022/09/27 06:14:15;;;;;;;3.67;1.90;;;;;;;9.85;100.00;99661.84;5055710;28;20052;-49
2022/09/27 06:17:01;;;;;;;7.15;2.33;;;;;;;9.85;100.00;99669.22;5068091;28;20395;-53
2022/09/27 06:19:34;;;;;;;4.32;1.98;;;;;;;9.79;100.00;99660.31;5051393;28;20050;-53
2022/09/27 06:22:02;;;;;;;3.55;1.42;;;;;;;9.75;100.00;99660.06;5068355;28;20185;-55
2022/09/27 06:24:40;;;;;;;4.57;1.27;;;;;;;9.73;100.00;99673.16;5055576;28;20081;-50
2022/09/27 06:27:17;;;;;;;2.77;1.30;;;;;;;9.79;100.00;99685.59;5064066;28;20049;-55
2022/09/27 06:29:56;;;;;;;3.45;1.23;;;;;;;9.87;100.00;99689.56;5058312;28;20117;-53
2022/09/27 06:32:56;;;;;;;2.88;1.27;;;;;;;9.88;100.00;99691.19;5054304;28;20045;-52
2022/09/27 06:35:39;;;;;;;3.83;1.20;;;;;;;9.90;100.00;99696.34;5066418;28;20052;-50
2022/09/27 06:38:09;;;;;;;2.95;1.30;;;;;;;9.87;100.00;99695.03;5077930;28;20104;-52
2022/09/27 06:40:45;;;;;;;3.45;1.60;;;;;;;9.85;100.00;99699.13;5066343;28;20101;-51
2022/09/27 06:43:32;;;;;;;2.22;1.20;;;;;;;9.84;100.00;99700.22;5065120;28;20048;-54
2022/09/27 06:46:12;;;;;;;2.10;1.20;;;;;;;9.89;100.00;99703.69;5049697;28;20037;-50
2022/09/27 06:48:49;;;;;;;3.70;1.50;;;;;;;9.90;100.00;99701.78;5075351;28;20119;-52
2022/09/27 06:51:19;;;;;;;3.38;1.30;;;;;;;9.92;100.00;99700.41;5086629;28;20068;-52
2022/09/27 06:53:48;;;;;;;3.55;1.30;;;;;;;9.92;100.00;99699.59;5075410;28;20063;-51
2022/09/27 06:56:16;;;;;;;4.30;1.58;;;;;;;9.96;100.00;99692.47;5023654;28;20502;-54
2022/09/27 07:01:43;;;;;;;3.28;1.15;;;;;;;10.05;100.00;99695.34;5070251;28;20040;-53
2022/09/27 07:04:30;;;;;;;3.60;1.27;;;;;;;9.98;100.00;99695.69;5065199;28;20498;-54
2022/09/27 07:07:12;;;;;;;3.88;1.30;;;;;;;10.01;100.00;99692.41;5070119;28;20033;-54
2022/09/27 07:09:45;;;;;;;5.47;1.60;;;;;;;10.01;100.00;99695.94;5070951;28;20036;-52
2022/09/27 07:12:13;;;;;;;3.00;1.55;;;;;;;10.00;100.00;99705.19;5058522;28;20544;-51
2022/09/27 07:14:42;;;;;;;2.35;1.00;;;;;;;10.02;100.00;99702.16;5074579;28;20166;-50
2022/09/27 07:17:15;;;;;;;3.22;1.48;;;;;;;9.99;100.00;99703.56;5057163;28;20472;-53
2022/09/27 07:19:46;;;;;;;4.82;1.70;;;;;;;9.99;100.00;99708.22;5056909;28;20048;-53
2022/09/27 07:22:14;;;;;;;3.63;1.20;;;;;;;10.00;100.00;99707.09;5061312;28;20036;-50
2022/09/27 07:24:45;;;;;;;2.45;1.38;;;;;;;10.03;100.00;99714.69;5074643;28;20498;-51
2022/09/27 07:27:14;;;;;;;2.40;1.30;;;;;;;10.02;100.00;99713.06;5073276;28;20045;-51
2022/09/27 07:29:42;;;;;;;2.10;1.25;;;;;;;10.04;100.00;99719.03;5066196;28;20036;-51
2022/09/27 07:32:09;;;;;;;2.78;1.40;;;;;;;10.01;100.00;99719.63;5075759;28;20044;-54
2022/09/27 07:34:38;;;;;;;4.43;1.80;;;;;;;10.01;100.00;99733.22;5074873;28;20144;-54
2022/09/27 07:37:07;;;;;;;3.05;1.55;;;;;;;10.02;100.00;99732.09;5071115;28;20052;-52
2022/09/27 07:39:38;;;;;;;5.20;2.00;;;;;;;10.03;100.00;99739.19;5062024;28;20054;-52
2022/09/27 07:42:06;;;;;;;4.85;1.83;;;;;;;10.02;100.00;99729.38;5075583;28;20044;-51
2022/09/27 07:44:38;;;;;;;11.18;3.20;;;;;;;10.02;100.00;99730.19;5074067;28;20048;-50
2022/09/27 07:47:26;;;;;;;4.47;1.80;;;;;;;10.05;100.00;99728.78;5063708;28;20044;-53
2022/09/27 07:50:05;;;;;;;8.38;2.30;;;;;;;10.10;100.00;99728.75;5070043;28;20513;-51
2022/09/27 07:52:46;;;;;;;9.25;3.67;;;;;;;10.12;100.00;99729.25;5055734;28;20509;-50
2022/09/27 07:55:35;;;;;;;8.45;3.00;;;;;;;10.14;100.00;99734.41;5059920;28;20552;-51
2022/09/27 07:58:16;;;;;;;11.15;3.13;;;;;;;10.11;100.00;99743.97;5072410;28;20047;-52
2022/09/27 08:00:44;;;;;;;5.35;1.80;;;;;;;10.07;100.00;99742.94;5070324;28;20052;-50
2022/09/27 08:03:16;;;;;;;12.23;4.03;;;;;;;10.12;100.00;99744.78;5057108;28;20041;-53
2022/09/27 08:05:47;;;;;;;5.10;2.00;;;;;;;10.07;100.00;99748.38;5034256;28;20048;-51
2022/09/27 08:08:16;;;;;;;7.32;2.42;;;;;;;10.11;100.00;99743.97;5073730;28;20402;-54
2022/09/27 08:10:45;;;;;;;9.35;2.42;;;;;;;10.16;100.00;99746.63;5068392;28;20501;-54
2022/09/27 08:13:16;;;;;;;6.97;2.55;;;;;;;10.19;100.00;99743.31;5072104;28;20048;-55
2022/09/27 08:15:44;;;;;;;5.65;2.53;;;;;;;10.22;100.00;99745.47;5067246;28;20491;-53
2022/09/27 08:18:12;;;;;;;10.43;3.00;;;;;;;10.28;100.00;99742.69;5054371;28;20040;-52
2022/09/27 08:21:09;;;;;;;6.45;2.22;;;;;;;10.22;100.00;99747.38;5059361;28;20530;-52
2022/09/27 08:24:10;;;;;;;4.53;2.10;;;;;;;10.20;100.00;99752.31;5073627;28;20040;-52
2022/09/27 08:27:06;;;;;;;6.53;2.30;;;;;;;10.24;100.00;99748.69;5058468;28;20048;-51
2022/09/27 08:29:46;;;;;;;4.90;2.45;;;;;;;10.30;100.00;99740.50;5056787;28;20037;-54
2022/09/27 08:32:16;;;;;;;12.13;4.70;;;;;;;10.33;100.00;99751.63;5060678;28;20045;-54
2022/09/27 08:34:49;;;;;;;7.28;2.83;;;;;;;10.31;100.00;99753.00;5071424;28;20077;-54
2022/09/27 08:37:19;;;;;;;8.77;2.58;;;;;;;10.30;100.00;99756.84;5070018;28;20044;-54
2022/09/27 08:39:48;;;;;;;5.20;2.10;;;;;;;10.30;100.00;99756.84;5053013;28;20051;-52
2022/09/27 08:42:44;;;;;;;10.18;3.67;;;;;;;10.33;100.00;99751.63;4366030;28;9999919;-55
2022/09/27 08:45:40;;;;;;;7.28;2.70;;;;;;;10.36;100.00;99763.84;5069260;28;20044;-55
2022/09/27 08:48:09;;;;;;;8.80;2.80;;;;;;;10.34;100.00;99768.75;5032767;28;20051;-52
2022/09/27 08:50:42;;;;;;;11.93;4.53;;;;;;;10.32;100.00;99773.69;5069836;28;20044;-56
2022/09/27 08:53:50;;;;;;;4.10;2.13;;;;;;;10.27;100.00;99780.00;5070002;28;20066;-56
2022/09/27 08:56:20;;;;;;;12.25;4.15;;;;;;;10.29;100.00;99771.53;5035247;28;20057;-55
2022/09/27 08:58:53;;;;;;;4.07;2.15;;;;;;;10.27;100.00;99774.53;5043334;28;20049;-56
2022/09/27 09:01:25;;;;;;;11.38;4.45;;;;;;;10.31;100.00;99767.44;5053474;28;20041;-53
2022/09/27 09:04:03;;;;;;;8.73;2.90;;;;;;;10.32;100.00;99776.41;5054316;28;20052;-54
2022/09/27 09:06:57;;;;;;;6.45;2.72;;;;;;;10.35;100.00;99770.38;5056242;28;20041;-55
2022/09/27 09:09:52;;;;;;;9.18;3.10;;;;;;;10.42;100.00;99774.38;5052065;28;20056;-54
2022/09/27 09:12:45;;;;;;;4.95;2.50;;;;;;;10.38;100.00;99780.69;5037041;28;20048;-53
2022/09/27 09:15:54;;;;;;;4.15;2.70;;;;;;;10.38;100.00;99780.69;5061673;28;20061;-53
2022/09/27 09:19:00;;;;;;;6.43;2.80;;;;;;;10.33;100.00;99784.28;5054236;28;20098;-55
2022/09/27 09:22:24;;;;;;;6.97;2.90;;;;;;;10.31;100.00;99789.22;5043297;28;20140;-53
2022/09/27 09:25:17;;;;;;;7.63;3.45;;;;;;;10.34;100.00;99790.53;5040986;28;20049;-52
2022/09/27 09:27:53;;;;;;;6.47;3.10;;;;;;;10.34;100.00;99787.81;5055332;28;20068;-50
2022/09/27 09:30:34;;;;;;;6.63;2.70;;;;;;;10.30;100.00;99801.22;5067060;28;20032;-52
2022/09/27 09:33:15;;;;;;;6.38;3.38;;;;;;;10.30;100.00;99789.53;5052097;28;20118;-50
2022/09/27 09:35:53;;;;;;;5.90;3.08;;;;;;;10.34;100.00;99790.53;5068821;28;20040;-56
2022/09/27 09:38:44;;;;;;;4.93;2.88;;;;;;;10.35;100.00;99789.44;5028802;28;20319;-53
2022/09/27 09:41:26;;;;;;;10.02;3.10;;;;;;;10.33;100.00;99791.66;5066238;28;20045;-53
2022/09/27 09:44:02;;;;;;;5.15;2.70;;;;;;;10.33;100.00;99791.66;5069010;28;20522;-52
2022/09/27 09:46:40;;;;;;;9.13;3.88;;;;;;;10.38;100.00;99789.66;5067837;28;20048;-52
2022/09/27 09:49:29;;;;;;;4.90;3.15;;;;;;;10.39;100.00;99777.69;5052206;28;20036;-52
2022/09/27 09:52:20;;;;;;;8.68;3.58;;;;;;;10.40;100.00;99784.75;5051942;28;20063;-53
2022/09/27 09:54:59;;;;;;;5.60;3.30;;;;;;;10.39;100.00;99785.03;5057949;28;20048;-54
2022/09/27 09:57:42;;;;;;;6.43;3.22;;;;;;;10.39;100.00;99785.03;5048734;28;20040;-52
2022/09/27 10:00:18;;;;;;;6.55;3.05;;;;;;;10.38;100.00;99780.69;5055867;28;20086;-53
2022/09/27 10:02:53;;;;;;;6.93;3.78;;;;;;;10.42;100.00;99781.72;5067901;28;20040;-58
2022/09/27 10:05:24;;;;;;;6.40;3.08;;;;;;;10.39;100.00;99787.75;5051849;28;20402;-55
2022/09/27 10:08:03;;;;;;;6.35;3.10;;;;;;;10.38;100.00;99781.50;5052780;28;20041;-55
2022/09/27 10:10:31;;;;;;;5.85;2.85;;;;;;;10.37;100.00;99787.25;5046802;28;20111;-53
2022/09/27 10:13:02;;;;;;;3.80;2.40;;;;;;;10.34;100.00;99780.47;5068569;28;20430;-54
2022/09/27 10:15:34;;;;;;;6.00;2.70;;;;;;;10.36;100.00;99789.13;5068277;28;20041;-53
2022/09/27 10:18:02;;;;;;;3.40;2.33;;;;;;;10.33;100.00;99783.47;5066572;28;20101;-53
2022/09/27 10:20:35;;;;;;;4.40;2.28;;;;;;;10.30;100.00;99789.53;5069993;28;20056;-51
2022/09/27 10:23:20;;;;;;;4.50;2.10;;;;;;;10.26;100.00;99786.53;5050516;28;20720;-54
2022/09/27 10:26:18;;;;;;;6.05;2.53;;;;;;;10.24;100.00;99788.72;5066761;28;20048;-56
2022/09/27 10:28:50;;;;;;;1.98;1.40;;;;;;;10.19;100.00;99792.31;5052278;28;20048;-53
2022/09/27 10:31:24;;;;;;;3.40;1.70;;;;;;;10.17;100.00;99783.66;5065216;28;20041;-54
2022/09/27 10:34:26;;;;;;;2.63;1.50;;;;;;;10.22;100.00;99789.03;5051354;28;20435;-51
2022/09/27 10:37:07;;;;;;;2.40;1.67;;;;;;;10.25;100.00;99793.09;5060795;28;20056;-54
2022/09/27 10:39:39;;;;;;;11.68;3.90;;;;;;;10.39;100.00;99782.28;5071394;28;20036;-53
2022/09/27 10:42:33;;;;;;;11.32;3.97;;;;;;;10.68;100.00;99776.75;5041498;28;20792;-51
2022/09/27 10:45:29;;;;;;;4.80;2.08;;;;;;;10.92;100.00;99773.94;5062104;28;20048;-50
2022/09/27 10:48:01;;;;;;;3.03;1.80;;;;;;;10.87;100.00;99771.28;5052037;28;20057;-56
2022/09/27 10:50:58;;;;;;;4.82;1.98;;;;;;;10.74;100.00;99782.94;5048498;28;20097;-53
2022/09/27 10:53:47;;;;;;;4.18;1.60;;;;;;;10.63;100.00;99779.53;5060827;28;20139;-52
2022/09/27 10:56:30;;;;;;;5.38;1.80;;;;;;;10.61;100.00;99782.56;5065247;28;20046;-52
2022/09/27 10:59:01;;;;;;;3.47;1.58;;;;;;;10.53;100.00;99785.91;5066439;28;20088;-54
2022/09/27 11:01:48;;;;;;;2.72;1.40;;;;;;;10.50;100.00;99788.44;5066278;28;20068;-55
2022/09/27 11:04:23;;;;;;;2.42;1.33;;;;;;;10.50;100.00;99783.78;5056776;28;20120;-55
2022/09/27 11:06:51;;;;;;;3.38;1.80;;;;;;;10.48;100.00;99791.44;5072908;28;20119;-54
2022/09/27 11:09:28;;;;;;;4.22;1.45;;;;;;;10.47;100.00;99789.84;5086342;28;20095;-56
2022/09/27 11:12:09;;;;;;;2.88;1.20;;;;;;;10.37;100.00;99798.94;5072567;28;20041;-53
2022/09/27 11:14:38;;;;;;;3.92;1.52;;;;;;;10.37;100.00;99796.22;5048110;28;20048;-55
2022/09/27 11:17:12;;;;;;;3.83;1.55;;;;;;;10.36;100.00;99796.50;5055196;28;20399;-53
2022/09/27 11:19:56;;;;;;;4.75;1.90;;;;;;;10.39;100.00;99795.91;5070427;28;20049;-52
2022/09/27 11:22:40;;;;;;;2.40;1.30;;;;;;;10.35;100.00;99795.69;5070853;28;20124;-57
2022/09/27 11:25:33;;;;;;;5.20;1.55;;;;;;;10.37;100.00;99795.41;5046299;28;20089;-53
2022/09/27 11:28:35;;;;;;;3.80;1.65;;;;;;;10.37;100.00;99795.41;5067972;28;20040;-56
2022/09/27 11:31:16;;;;;;;4.55;1.90;;;;;;;10.47;100.00;99800.72;5063643;28;20059;-53
2022/09/27 11:34:17;;;;;;;5.30;2.40;;;;;;;10.50;100.00;99796.59;5054227;28;20041;-50
2022/09/27 11:37:05;;;;;;;1.02;0.90;;;;;;;10.43;100.00;99799.69;5064115;28;20037;-52
2022/09/27 11:39:54;;;;;;;1.67;1.02;;;;;;;10.37;100.00;99796.22;5072517;28;20047;-53
2022/09/27 11:42:32;;;;;;;2.97;1.27;;;;;;;10.42;100.00;99801.59;5053959;28;20040;-56
2022/09/27 11:45:10;;;;;;;2.53;1.15;;;;;;;10.42;100.00;99798.06;5070645;28;20071;-56
2022/09/27 11:48:30;;;;;;;2.70;1.23;;;;;;;10.39;100.00;99798.63;5074568;28;20044;-55
2022/09/27 11:51:08;;;;;;;2.88;1.20;;;;;;;10.34;100.00;99801.44;5047717;28;20053;-53
2022/09/27 11:54:08;;;;;;;2.63;1.30;;;;;;;10.36;100.00;99796.50;5051951;28;20089;-51
2022/09/27 11:56:57;;;;;;;1.20;0.90;;;;;;;10.36;100.00;99793.78;5073830;28;20048;-53
2022/09/27 11:59:34;;;;;;;1.85;1.15;;;;;;;10.37;100.00;99795.41;5072621;28;20037;-52
2022/09/27 12:02:22;;;;;;;3.47;1.05;;;;;;;10.32;100.00;99796.28;5063829;28;20045;-56
2022/09/27 12:05:02;;;;;;;4.50;1.42;;;;;;;10.29;100.00;99777.00;5036488;28;20106;-52
2022/09/27 12:07:43;;;;;;;4.40;1.55;;;;;;;10.21;100.00;99770.25;5073888;28;20052;-56
2022/09/27 12:10:18;;;;;;;2.63;1.30;;;;;;;10.20;100.00;99774.09;5071819;28;20037;-56
2022/09/27 12:12:50;;;;;;;5.03;1.48;;;;;;;10.22;100.00;99780.88;5073602;28;20037;-54
2022/09/27 12:15:21;;;;;;;2.17;1.00;;;;;;;10.17;100.00;99780.94;5072687;28;20049;-52
2022/09/27 12:17:54;;;;;;;2.25;1.13;;;;;;;10.20;100.00;99783.06;5053267;28;20045;-54
2022/09/27 12:20:25;;;;;;;1.75;1.08;;;;;;;10.22;100.00;99778.16;5053860;28;20044;-53
2022/09/27 12:23:21;;;;;;;3.88;1.15;;;;;;;10.25;100.00;99771.31;5060888;28;20059;-56
2022/09/27 12:26:04;;;;;;;2.05;0.90;;;;;;;10.25;100.00;99774.03;5068045;28;20504;-56